Time;durP1;ratioP1;P1;durP2;ratioP2;P2;SDS_P1;SDS_P2;PMS_P1;PMS_P2;Temp;Humidity;BMP_temperature;BMP_pressure;BME280_temperature;BME280_humidity;BME280_pressure;Samples;Min_cycle;Max_cycle;Signal;HPM_P1;HPM_P2
2022/04/03 00:01:24;;;;;;;2.47;0.73;;;-1.20;99.00;;;;;;4966624;28;20052;-88
2022/04/03 00:03:50;;;;;;;2.97;0.90;;;-1.20;99.10;;;;;;4974113;28;20030;-88
2022/04/03 00:06:15;;;;;;;4.18;0.88;;;-1.20;99.30;;;;;;4969808;28;20041;-88
2022/04/03 00:08:41;;;;;;;2.95;0.77;;;-1.30;99.50;;;;;;4975429;28;20070;-88
2022/04/03 00:11:06;;;;;;;4.53;1.00;;;-1.40;99.70;;;;;;4975245;28;20085;-88
2022/04/03 00:13:32;;;;;;;3.50;1.15;;;-1.40;99.90;;;;;;4974742;28;20421;-88
2022/04/03 00:15:57;;;;;;;2.42;0.63;;;-1.40;99.90;;;;;;4979210;28;20038;-88
2022/04/03 00:18:23;;;;;;;4.28;0.80;;;-1.50;99.90;;;;;;4977631;28;20026;-88
2022/04/03 00:20:49;;;;;;;3.67;1.05;;;-1.50;99.90;;;;;;4979191;28;20113;-88
2022/04/03 00:23:15;;;;;;;6.03;1.10;;;-1.40;99.90;;;;;;4978577;28;20026;-88
2022/04/03 00:25:40;;;;;;;5.97;1.20;;;-1.30;99.90;;;;;;4978915;28;20022;-88
2022/04/03 00:28:07;;;;;;;6.18;1.10;;;-1.30;99.90;;;;;;4976809;28;20490;-88
2022/04/03 00:30:33;;;;;;;4.30;1.55;;;-1.30;99.90;;;;;;4976175;28;20036;-88
2022/04/03 00:32:59;;;;;;;4.95;1.08;;;-1.40;99.90;;;;;;4972156;28;20508;-88
2022/04/03 00:35:25;;;;;;;4.78;1.33;;;-1.30;99.90;;;;;;4986200;28;20149;-88
2022/04/03 00:37:50;;;;;;;4.72;1.27;;;-1.30;99.90;;;;;;4991797;28;20478;-88
2022/04/03 00:40:17;;;;;;;5.05;1.10;;;-1.30;99.90;;;;;;4978201;28;20030;-87
2022/04/03 00:42:43;;;;;;;4.18;1.30;;;-1.30;99.90;;;;;;4977583;28;20029;-88
2022/04/03 00:45:09;;;;;;;3.88;1.30;;;-1.30;99.90;;;;;;4970879;28;20027;-88
2022/04/03 00:47:35;;;;;;;3.13;1.08;;;-1.30;99.90;;;;;;4971924;28;20031;-88
2022/04/03 00:50:01;;;;;;;6.13;1.55;;;-1.40;99.90;;;;;;4971918;28;20030;-88
2022/04/03 00:52:27;;;;;;;3.63;1.45;;;-1.40;99.90;;;;;;4976140;28;20055;-88
2022/04/03 00:54:53;;;;;;;7.57;1.95;;;-1.40;99.90;;;;;;4976844;28;20030;-88
2022/04/03 00:57:23;;;;;;;5.43;1.67;;;-1.40;99.90;;;;;;4975137;28;20041;-88
2022/04/03 00:59:49;;;;;;;8.43;2.08;;;-1.30;99.90;;;;;;4977105;28;20030;-88
2022/04/03 01:02:15;;;;;;;8.98;2.08;;;-1.30;99.90;;;;;;4972895;28;20031;-88
2022/04/03 01:04:41;;;;;;;9.80;2.28;;;-1.30;99.90;;;;;;4963444;28;20031;-88
2022/04/03 01:07:07;;;;;;;10.90;2.40;;;-1.30;99.90;;;;;;4963653;28;20039;-88
2022/04/03 01:09:33;;;;;;;8.25;2.25;;;-1.30;99.90;;;;;;4979506;28;20030;-88
2022/04/03 01:11:59;;;;;;;7.53;3.63;;;-1.20;99.90;;;;;;4978677;28;20050;-88
2022/04/03 01:14:39;;;;;;;4.75;1.67;;;-1.20;99.90;;;;;;4977268;28;20026;-88
2022/04/03 01:17:06;;;;;;;9.50;2.58;;;-1.20;99.90;;;;;;4970593;28;20026;-88
2022/04/03 01:19:32;;;;;;;11.30;2.53;;;-1.20;99.90;;;;;;4969485;28;20027;-88
2022/04/03 01:21:57;;;;;;;7.10;2.25;;;-1.20;99.90;;;;;;4976600;28;20367;-88
2022/04/03 01:24:25;;;;;;;7.60;2.60;;;-1.20;99.90;;;;;;4979311;28;20493;-88
2022/04/03 01:26:51;;;;;;;8.35;3.00;;;-1.10;99.90;;;;;;4973208;28;20050;-88
2022/04/03 01:29:17;;;;;;;6.85;2.85;;;-1.10;99.90;;;;;;4972132;28;20027;-88
2022/04/03 01:31:44;;;;;;;5.55;2.35;;;-1.10;99.90;;;;;;4960922;28;20034;-88
2022/04/03 01:34:09;;;;;;;9.10;2.30;;;-1.20;99.90;;;;;;4968158;28;20030;-88
2022/04/03 01:36:35;;;;;;;7.97;2.22;;;-1.20;99.90;;;;;;4966178;28;20029;-88
2022/04/03 01:39:01;;;;;;;5.93;2.08;;;-1.30;99.90;;;;;;4979008;28;20113;-88
2022/04/03 01:41:27;;;;;;;4.03;1.70;;;-1.30;99.90;;;;;;4971260;28;20030;-88
2022/04/03 01:43:52;;;;;;;6.50;2.42;;;-1.50;99.90;;;;;;4966941;28;20026;-88
2022/04/03 01:46:18;;;;;;;11.23;2.55;;;-1.60;99.90;;;;;;4978695;28;20049;-88
2022/04/03 01:48:43;;;;;;;6.78;2.20;;;-1.60;99.90;;;;;;4975361;28;20086;-89
2022/04/03 01:51:09;;;;;;;12.80;2.10;;;-1.70;99.90;;;;;;4976872;28;20030;-88
2022/04/03 01:53:34;;;;;;;8.50;2.17;;;-1.80;99.90;;;;;;4974247;28;20018;-88
2022/04/03 01:56:03;;;;;;;7.82;1.98;;;-1.90;99.90;;;;;;4977202;28;20031;-88
2022/04/03 01:58:29;;;;;;;7.55;2.63;;;-1.90;99.90;;;;;;4978470;28;20422;-88
2022/04/03 02:00:54;;;;;;;6.32;2.75;;;-1.90;99.90;;;;;;4977845;28;20121;-89
2022/04/03 02:03:20;;;;;;;7.47;2.60;;;-1.90;99.90;;;;;;4971716;28;20175;-88
2022/04/03 02:05:45;;;;;;;6.85;2.47;;;-1.90;99.90;;;;;;4968775;28;20104;-89
2022/04/03 02:08:12;;;;;;;8.02;2.10;;;-1.90;99.90;;;;;;4973132;28;20053;-89
2022/04/03 02:10:38;;;;;;;4.65;2.35;;;-1.90;99.90;;;;;;4974529;28;20137;-88
2022/04/03 02:13:04;;;;;;;8.48;2.90;;;-1.90;99.90;;;;;;4975377;28;20154;-88
2022/04/03 02:15:30;;;;;;;6.68;2.65;;;-1.90;99.90;;;;;;4973740;28;20027;-89
2022/04/03 02:17:55;;;;;;;7.95;3.10;;;-1.90;99.90;;;;;;4976280;28;20029;-88
2022/04/03 02:20:21;;;;;;;5.60;2.42;;;-1.90;99.90;;;;;;4971453;28;20100;-88
2022/04/03 02:22:46;;;;;;;8.07;3.22;;;-1.90;99.90;;;;;;4964220;28;20371;-88
2022/04/03 02:25:13;;;;;;;5.80;2.67;;;-1.90;99.90;;;;;;4964918;28;20026;-88
2022/04/03 02:27:40;;;;;;;6.75;3.28;;;-1.80;99.90;;;;;;4971271;28;20125;-88
2022/04/03 02:30:09;;;;;;;11.25;2.47;;;-1.80;99.90;;;;;;4968978;28;20026;-88
2022/04/03 02:32:36;;;;;;;11.15;2.97;;;-1.80;99.90;;;;;;4976681;28;20057;-88
2022/04/03 02:35:02;;;;;;;7.38;3.05;;;-1.90;99.90;;;;;;4972267;28;20129;-88
2022/04/03 02:37:27;;;;;;;5.82;2.80;;;-1.90;99.90;;;;;;4978015;28;20056;-89
2022/04/03 02:39:53;;;;;;;6.78;2.80;;;-2.10;99.90;;;;;;4977772;28;20030;-88
2022/04/03 02:42:19;;;;;;;6.40;2.50;;;-2.10;99.90;;;;;;4977748;28;20037;-88
2022/04/03 02:44:44;;;;;;;6.57;2.83;;;-2.20;99.90;;;;;;4977903;28;20030;-88
2022/04/03 02:47:10;;;;;;;7.05;3.20;;;-2.30;99.90;;;;;;4976889;28;20077;-88
2022/04/03 02:49:36;;;;;;;7.72;2.83;;;-2.40;99.90;;;;;;4974505;28;20030;-88
2022/04/03 02:52:02;;;;;;;7.53;3.35;;;-2.40;99.90;;;;;;4974027;28;20065;-88
2022/04/03 02:54:27;;;;;;;6.93;2.95;;;-2.50;99.90;;;;;;4976499;28;20022;-88
2022/04/03 02:56:53;;;;;;;7.57;2.30;;;-2.50;99.90;;;;;;4973132;28;20026;-88
2022/04/03 02:59:18;;;;;;;6.68;2.58;;;-2.40;99.90;;;;;;4971315;28;20509;-88
2022/04/03 03:01:44;;;;;;;6.78;2.38;;;-2.40;99.90;;;;;;4963926;28;20030;-88
2022/04/03 03:04:09;;;;;;;4.95;2.05;;;-2.40;99.90;;;;;;4972925;28;20026;-88
2022/04/03 03:06:35;;;;;;;7.50;2.53;;;-2.40;99.90;;;;;;4977114;28;20034;-88
2022/04/03 03:09:00;;;;;;;7.25;3.00;;;-2.40;99.90;;;;;;4976801;28;20026;-88
2022/04/03 03:11:26;;;;;;;7.93;2.75;;;-2.30;99.90;;;;;;4973644;28;20049;-88
2022/04/03 03:13:52;;;;;;;8.50;2.88;;;-2.30;99.90;;;;;;4973224;28;20046;-88
2022/04/03 03:16:17;;;;;;;7.38;2.30;;;-2.30;99.90;;;;;;4974970;28;20029;-88
2022/04/03 03:18:43;;;;;;;6.72;3.05;;;-2.40;99.90;;;;;;4977516;28;20050;-88
2022/04/03 03:21:08;;;;;;;7.03;2.42;;;-2.40;99.90;;;;;;4969462;28;20085;-87
2022/04/03 03:23:34;;;;;;;5.72;2.22;;;-2.50;99.90;;;;;;4966295;28;20030;-88
2022/04/03 03:25:59;;;;;;;8.15;3.20;;;-2.50;99.90;;;;;;4975746;28;20490;-88
2022/04/03 03:28:26;;;;;;;5.90;3.10;;;-2.60;99.90;;;;;;4976298;28;20037;-88
2022/04/03 03:30:52;;;;;;;6.45;3.17;;;-2.60;99.90;;;;;;4959779;28;20042;-88
2022/04/03 03:33:17;;;;;;;7.68;2.97;;;-2.70;99.90;;;;;;4963237;28;20019;-87
2022/04/03 03:35:43;;;;;;;9.10;2.85;;;-2.70;99.90;;;;;;4973995;28;20033;-88
2022/04/03 03:38:09;;;;;;;6.57;2.60;;;-2.80;99.90;;;;;;4977139;28;20498;-88
2022/04/03 03:40:38;;;;;;;6.03;2.58;;;-2.80;99.90;;;;;;4963811;28;20018;-87
2022/04/03 03:43:04;;;;;;;7.03;3.10;;;-2.80;99.90;;;;;;4977433;28;20035;-88
2022/04/03 03:45:30;;;;;;;7.97;2.80;;;-2.80;99.90;;;;;;4973563;28;20027;-88
2022/04/03 03:47:57;;;;;;;7.15;2.80;;;-2.80;99.90;;;;;;4970124;28;20030;-88
2022/04/03 03:50:23;;;;;;;12.40;3.20;;;-2.80;99.90;;;;;;4975415;28;20050;-88
2022/04/03 03:52:49;;;;;;;9.35;3.42;;;-2.80;99.90;;;;;;4971856;28;20026;-88
2022/04/03 03:55:15;;;;;;;12.32;4.10;;;-2.80;99.90;;;;;;4971942;28;20478;-88
2022/04/03 03:57:46;;;;;;;7.75;2.97;;;-2.70;99.90;;;;;;4969750;28;20459;-87
2022/04/03 04:00:14;;;;;;;8.73;3.40;;;-2.70;99.90;;;;;;4976873;28;20471;-88
2022/04/03 04:02:39;;;;;;;5.13;2.40;;;-2.60;99.90;;;;;;4969710;28;20023;-88
2022/04/03 04:05:06;;;;;;;8.95;2.47;;;-2.60;99.90;;;;;;4976812;28;20027;-88
2022/04/03 04:07:39;;;;;;;7.13;3.10;;;-2.50;99.90;;;;;;4968580;28;20034;-89
2022/04/03 04:10:05;;;;;;;6.45;3.65;;;-2.40;99.90;;;;;;4965131;28;20471;-88
2022/04/03 04:12:31;;;;;;;8.18;4.20;;;-2.30;99.90;;;;;;4960316;28;20165;-88
2022/04/03 04:14:57;;;;;;;7.95;3.13;;;-2.30;99.90;;;;;;4976560;28;20030;-88
2022/04/03 04:17:23;;;;;;;9.95;3.47;;;-2.20;99.90;;;;;;4967824;28;20031;-88
2022/04/03 04:19:49;;;;;;;8.70;3.17;;;-2.20;99.90;;;;;;4976376;28;20042;-88
2022/04/03 04:22:16;;;;;;;9.48;3.35;;;-2.10;99.90;;;;;;4980314;28;20031;-88
2022/04/03 04:24:42;;;;;;;6.95;3.10;;;-2.10;99.90;;;;;;4980245;28;20429;-88
2022/04/03 04:27:07;;;;;;;6.30;2.65;;;-2.10;99.90;;;;;;4979332;28;20054;-89
2022/04/03 04:29:33;;;;;;;10.85;3.33;;;-2.10;99.90;;;;;;4984386;28;20026;-88
2022/04/03 04:31:59;;;;;;;11.05;4.03;;;-2.00;99.90;;;;;;4973940;28;20028;-88
2022/04/03 04:34:24;;;;;;;8.60;3.20;;;-2.00;99.90;;;;;;4974486;28;20019;-88
2022/04/03 04:36:50;;;;;;;7.10;2.72;;;-1.90;99.90;;;;;;4978910;28;20038;-89
2022/04/03 04:39:15;;;;;;;8.43;3.47;;;-1.90;99.90;;;;;;4981815;28;20046;-89
2022/04/03 04:41:41;;;;;;;10.20;2.95;;;-1.90;99.90;;;;;;4981639;28;20104;-89
2022/04/03 04:44:06;;;;;;;10.48;3.28;;;-1.80;99.90;;;;;;4980175;28;20022;-89
2022/04/03 04:46:32;;;;;;;6.85;3.55;;;-1.80;99.90;;;;;;4969650;28;20048;-89
2022/04/03 04:48:58;;;;;;;10.65;3.33;;;-1.80;99.90;;;;;;4973016;28;20030;-89
2022/04/03 04:51:23;;;;;;;9.02;3.38;;;-1.70;99.90;;;;;;4981572;28;20022;-89
2022/04/03 04:53:49;;;;;;;7.05;3.05;;;-1.70;99.90;;;;;;4981161;28;20088;-89
2022/04/03 04:56:14;;;;;;;5.68;2.35;;;-1.60;99.90;;;;;;4980253;28;20031;-89
2022/04/03 04:58:40;;;;;;;10.60;3.60;;;-1.50;99.90;;;;;;4979742;28;20030;-89
2022/04/03 05:01:06;;;;;;;9.90;3.42;;;-1.50;99.90;;;;;;4980044;28;20035;-89
2022/04/03 05:03:31;;;;;;;11.43;3.13;;;-1.40;99.90;;;;;;4975532;28;20076;-89
2022/04/03 05:05:57;;;;;;;6.10;2.50;;;-1.40;99.90;;;;;;4980013;28;20399;-88
2022/04/03 05:08:23;;;;;;;12.07;3.03;;;-1.30;99.90;;;;;;4967808;28;21636;-90
2022/04/03 05:10:50;;;;;;;7.18;3.28;;;-1.30;99.90;;;;;;4992034;28;20121;-89
2022/04/03 05:13:16;;;;;;;10.77;3.60;;;-1.20;99.90;;;;;;4977779;28;20026;-89
2022/04/03 05:15:41;;;;;;;7.22;3.22;;;-1.20;99.90;;;;;;4966669;28;20077;-88
2022/04/03 05:18:07;;;;;;;10.73;3.20;;;-1.20;99.90;;;;;;4971147;28;20040;-88
2022/04/03 05:20:33;;;;;;;8.48;3.47;;;-1.10;99.90;;;;;;4979676;28;20052;-88
2022/04/03 05:22:59;;;;;;;8.95;2.58;;;-1.00;99.90;;;;;;4979867;28;20022;-89
2022/04/03 05:25:25;;;;;;;8.55;2.80;;;-1.00;99.90;;;;;;4974296;28;20097;-90
2022/04/03 05:27:50;;;;;;;8.30;3.47;;;-1.00;99.90;;;;;;4975843;28;20030;-89
2022/04/03 05:30:16;;;;;;;9.48;3.65;;;-0.90;99.90;;;;;;4976317;28;20026;-89
2022/04/03 05:32:42;;;;;;;9.93;3.15;;;-0.90;99.90;;;;;;4975975;28;20094;-89
2022/04/03 05:35:09;;;;;;;8.60;2.78;;;-0.80;99.90;;;;;;4976516;28;20033;-88
2022/04/03 05:37:36;;;;;;;11.95;3.85;;;-0.80;99.90;;;;;;4974191;28;20034;-89
2022/04/03 05:40:04;;;;;;;10.20;3.60;;;-0.80;99.90;;;;;;4974340;28;20026;-88
2022/04/03 05:42:30;;;;;;;8.20;3.10;;;-0.70;99.90;;;;;;4994401;28;20034;-89
2022/04/03 05:44:55;;;;;;;4.75;2.60;;;-0.70;99.90;;;;;;4982389;28;20462;-89
2022/04/03 05:47:21;;;;;;;6.70;3.13;;;-0.60;99.90;;;;;;4979597;28;20410;-89
2022/04/03 05:49:46;;;;;;;8.38;3.38;;;-0.60;99.90;;;;;;4978791;28;20019;-89
2022/04/03 05:52:12;;;;;;;9.48;3.40;;;-0.50;99.90;;;;;;4988612;28;20061;-89
2022/04/03 05:54:38;;;;;;;7.13;3.35;;;-0.50;99.90;;;;;;4978733;28;20034;-89
2022/04/03 05:57:04;;;;;;;9.15;4.05;;;-0.40;99.90;;;;;;4979702;28;20030;-89
2022/04/03 05:59:29;;;;;;;8.10;3.35;;;-0.30;99.90;;;;;;4979247;28;20070;-89
2022/04/03 06:01:55;;;;;;;6.85;3.20;;;-0.30;99.90;;;;;;4981034;28;20026;-89
2022/04/03 06:04:20;;;;;;;6.60;3.30;;;-0.20;99.90;;;;;;4972013;28;20027;-89
2022/04/03 06:06:46;;;;;;;11.35;3.42;;;-0.20;99.90;;;;;;4976365;28;20038;-89
2022/04/03 06:09:11;;;;;;;6.65;2.80;;;-0.10;99.90;;;;;;4973501;28;20018;-87
2022/04/03 06:11:37;;;;;;;8.13;3.55;;;-0.10;99.90;;;;;;4978410;28;20069;-87
2022/04/03 06:14:02;;;;;;;6.32;2.88;;;0.00;99.90;;;;;;4974379;28;20121;-89
2022/04/03 06:16:28;;;;;;;7.57;3.55;;;0.00;99.90;;;;;;4966541;28;20117;-88
2022/04/03 06:18:54;;;;;;;7.63;3.20;;;0.00;99.90;;;;;;4979087;28;20030;-88
2022/04/03 06:21:20;;;;;;;7.03;2.83;;;0.10;99.90;;;;;;4975987;28;20026;-88
2022/04/03 06:23:45;;;;;;;6.05;3.20;;;0.00;99.90;;;;;;4975397;28;20038;-87
2022/04/03 06:26:11;;;;;;;7.70;3.45;;;0.10;99.90;;;;;;4978300;28;20045;-88
2022/04/03 06:28:36;;;;;;;6.00;3.67;;;0.10;99.90;;;;;;4975376;28;20057;-88
2022/04/03 06:31:03;;;;;;;7.88;3.47;;;0.10;99.90;;;;;;4976352;28;20091;-88
2022/04/03 06:33:29;;;;;;;8.48;3.20;;;0.10;99.90;;;;;;4978106;28;20417;-88
2022/04/03 06:35:54;;;;;;;10.88;4.28;;;0.10;99.90;;;;;;4996592;28;20479;-88
2022/04/03 06:38:20;;;;;;;9.95;3.45;;;0.10;99.90;;;;;;4983723;28;20049;-88
2022/04/03 06:40:58;;;;;;;11.00;4.45;;;0.10;99.90;;;;;;4977450;28;20030;-89
2022/04/03 06:43:29;;;;;;;14.38;4.57;;;0.20;99.90;;;;;;4976173;28;20056;-88
2022/04/03 06:45:55;;;;;;;8.48;3.80;;;0.20;99.90;;;;;;4977654;28;20034;-88
2022/04/03 06:48:22;;;;;;;10.18;4.78;;;0.20;99.90;;;;;;4975876;28;20030;-88
2022/04/03 06:50:47;;;;;;;10.77;4.75;;;0.20;99.90;;;;;;4995015;28;20038;-88
2022/04/03 06:53:13;;;;;;;13.82;6.47;;;0.20;99.90;;;;;;4976757;28;20073;-88
2022/04/03 06:55:39;;;;;;;13.07;6.75;;;0.30;99.90;;;;;;4969595;28;20030;-89
2022/04/03 06:58:05;;;;;;;16.25;8.18;;;0.40;99.90;;;;;;4971529;28;20117;-90
2022/04/03 07:00:30;;;;;;;16.58;7.78;;;0.50;99.90;;;;;;4985994;28;20038;-89
2022/04/03 07:02:56;;;;;;;17.45;9.43;;;0.60;99.90;;;;;;4969683;28;20049;-89
2022/04/03 07:05:22;;;;;;;15.35;8.43;;;0.70;99.90;;;;;;4967849;28;20095;-89
2022/04/03 07:07:51;;;;;;;14.00;8.07;;;0.80;99.90;;;;;;4969783;28;20507;-90
2022/04/03 07:10:17;;;;;;;15.05;8.40;;;1.00;99.90;;;;;;4986331;28;20034;-88
2022/04/03 07:12:42;;;;;;;12.90;7.82;;;1.00;99.90;;;;;;4966449;28;20030;-88
2022/04/03 07:15:11;;;;;;;15.30;7.75;;;1.10;99.90;;;;;;4972468;28;20057;-89
2022/04/03 07:17:41;;;;;;;14.10;7.80;;;1.20;99.90;;;;;;4987643;28;20031;-90
2022/04/03 07:20:08;;;;;;;14.05;8.07;;;1.30;99.90;;;;;;4971806;28;20496;-89
2022/04/03 07:22:33;;;;;;;13.40;6.55;;;1.40;99.90;;;;;;4987823;28;20497;-89
2022/04/03 07:24:59;;;;;;;11.48;7.22;;;1.50;99.90;;;;;;4971554;28;20026;-89
2022/04/03 07:27:26;;;;;;;13.70;7.00;;;1.60;99.90;;;;;;4961174;28;20027;-89
2022/04/03 07:29:51;;;;;;;13.18;6.95;;;1.70;99.90;;;;;;4967028;28;22109;-89
2022/04/03 07:32:16;;;;;;;14.10;7.30;;;1.80;99.90;;;;;;4968649;28;20019;-88
2022/04/03 07:34:42;;;;;;;15.07;7.75;;;1.90;99.90;;;;;;4975111;28;20073;-88
2022/04/03 07:37:07;;;;;;;11.93;7.55;;;2.10;99.90;;;;;;4971260;28;20542;-88
2022/04/03 07:39:33;;;;;;;12.90;8.27;;;2.10;99.90;;;;;;4969296;28;20110;-88
2022/04/03 07:41:59;;;;;;;11.35;7.05;;;2.20;99.90;;;;;;4968532;28;20104;-88
2022/04/03 07:44:25;;;;;;;14.23;6.75;;;2.40;99.90;;;;;;4967571;28;20015;-87
2022/04/03 07:46:50;;;;;;;12.63;6.97;;;2.50;99.90;;;;;;4972543;28;20038;-87
2022/04/03 07:49:16;;;;;;;10.38;6.68;;;2.60;99.90;;;;;;4972257;28;20113;-87
2022/04/03 07:51:42;;;;;;;11.68;7.18;;;2.70;99.90;;;;;;4967423;28;20080;-88
2022/04/03 07:54:08;;;;;;;9.77;6.63;;;2.80;99.90;;;;;;4972988;28;20022;-88
2022/04/03 07:56:35;;;;;;;10.30;6.13;;;3.00;99.90;;;;;;4972729;28;20117;-89
2022/04/03 07:59:03;;;;;;;12.27;5.78;;;3.10;99.90;;;;;;4971412;28;20026;-88
2022/04/03 08:01:29;;;;;;;10.77;5.68;;;3.30;99.90;;;;;;4974327;28;20070;-88
2022/04/03 08:03:54;;;;;;;8.70;6.47;;;3.30;99.90;;;;;;4971806;28;20046;-88
2022/04/03 08:06:20;;;;;;;10.27;5.38;;;3.50;99.90;;;;;;4975938;28;20056;-89
2022/04/03 08:08:45;;;;;;;7.28;4.28;;;3.60;99.90;;;;;;4975418;28;20105;-89
2022/04/03 08:11:11;;;;;;;7.60;4.78;;;3.80;99.90;;;;;;4974807;28;20043;-85
2022/04/03 08:13:36;;;;;;;8.75;4.65;;;3.90;99.90;;;;;;4975926;28;20125;-88
2022/04/03 08:16:02;;;;;;;8.63;4.22;;;4.10;99.90;;;;;;4973555;28;20078;-89
2022/04/03 08:18:28;;;;;;;6.40;3.70;;;4.20;99.90;;;;;;4980101;28;20511;-88
2022/04/03 08:20:54;;;;;;;5.30;3.40;;;4.40;99.90;;;;;;4978926;28;20026;-88
2022/04/03 08:23:19;;;;;;;8.05;3.40;;;4.50;99.90;;;;;;4979120;28;20026;-85
2022/04/03 08:25:45;;;;;;;4.95;2.92;;;4.60;99.90;;;;;;4980055;28;20018;-86
2022/04/03 08:28:11;;;;;;;3.83;2.33;;;4.90;99.90;;;;;;4979794;28;20045;-86
2022/04/03 08:30:38;;;;;;;7.25;2.35;;;5.20;99.90;;;;;;4974968;28;20019;-85
2022/04/03 08:33:05;;;;;;;4.88;2.35;;;5.40;99.90;;;;;;4978133;28;20039;-86
2022/04/03 08:35:32;;;;;;;4.78;1.85;;;5.50;99.90;;;;;;4981089;28;20057;-85
2022/04/03 08:37:59;;;;;;;5.32;1.92;;;5.60;99.90;;;;;;4978355;28;20026;-85
2022/04/03 08:40:26;;;;;;;5.22;1.88;;;5.70;99.90;;;;;;4976238;28;20077;-86
2022/04/03 08:42:55;;;;;;;2.72;1.40;;;5.70;99.90;;;;;;4975114;28;20112;-85
2022/04/03 08:45:22;;;;;;;3.05;1.17;;;5.80;99.90;;;;;;4979029;28;20026;-86
2022/04/03 08:47:53;;;;;;;4.60;0.90;;;5.80;99.90;;;;;;4991420;28;20142;-87
2022/04/03 08:50:20;;;;;;;3.42;0.70;;;5.90;99.90;;;;;;4975572;28;20490;-86
2022/04/03 08:52:51;;;;;;;1.85;0.60;;;5.90;99.90;;;;;;4977893;28;20038;-86
2022/04/03 08:55:19;;;;;;;2.85;0.75;;;5.90;99.90;;;;;;4978998;28;20030;-86
2022/04/03 08:57:44;;;;;;;4.60;0.80;;;5.80;99.90;;;;;;4981524;28;20030;-86
2022/04/03 09:00:13;;;;;;;3.65;1.30;;;5.70;99.90;;;;;;4980224;28;20269;-86
2022/04/03 09:02:39;;;;;;;3.83;0.60;;;5.60;99.90;;;;;;4973337;28;20121;-85
2022/04/03 09:05:05;;;;;;;1.73;0.80;;;5.70;99.90;;;;;;4975877;28;20113;-85
2022/04/03 09:07:31;;;;;;;3.60;0.95;;;5.70;99.90;;;;;;4976787;28;20522;-84
2022/04/03 09:10:10;;;;;;;3.15;0.63;;;5.70;99.90;;;;;;4973305;28;20070;-86
2022/04/03 09:12:44;;;;;;;2.60;0.70;;;5.80;99.90;;;;;;4980159;28;20081;-86
2022/04/03 09:15:17;;;;;;;4.07;0.73;;;5.90;99.90;;;;;;4979465;28;20479;-86
2022/04/03 09:17:45;;;;;;;2.38;0.60;;;6.00;99.90;;;;;;4976218;28;20090;-85
2022/04/03 09:20:17;;;;;;;2.35;0.60;;;6.20;99.90;;;;;;4977462;28;20031;-86
2022/04/03 09:22:45;;;;;;;5.32;0.57;;;6.30;99.90;;;;;;4990471;28;20029;-85
2022/04/03 09:25:12;;;;;;;3.10;0.50;;;6.60;99.90;;;;;;4972968;28;20026;-85
2022/04/03 09:27:50;;;;;;;2.50;0.43;;;6.70;99.90;;;;;;4978726;28;20557;-85
2022/04/03 09:30:20;;;;;;;1.80;0.40;;;6.70;99.90;;;;;;4975854;28;20022;-85
2022/04/03 09:33:10;;;;;;;1.30;0.30;;;6.80;99.90;;;;;;4978616;28;20077;-85
2022/04/03 09:35:55;;;;;;;2.17;0.40;;;6.80;99.60;;;;;;4971006;28;20057;-86
2022/04/03 09:38:21;;;;;;;4.30;0.45;;;6.60;99.70;;;;;;4977659;28;20038;-86
2022/04/03 09:40:51;;;;;;;2.28;0.38;;;6.70;99.90;;;;;;4979789;28;20412;-85
2022/04/03 09:43:20;;;;;;;3.05;0.30;;;6.80;99.80;;;;;;4977294;28;20077;-85
2022/04/03 09:45:50;;;;;;;2.83;0.40;;;6.90;98.90;;;;;;4979640;28;20026;-86
2022/04/03 09:48:21;;;;;;;1.40;0.50;;;6.90;98.60;;;;;;4992976;28;20462;-86
2022/04/03 09:51:08;;;;;;;2.75;0.50;;;7.00;98.90;;;;;;4975858;28;20441;-86
2022/04/03 09:54:00;;;;;;;3.33;0.47;;;7.20;98.30;;;;;;4976967;28;20039;-85
2022/04/03 09:56:28;;;;;;;2.67;0.60;;;7.30;97.00;;;;;;4978455;28;20018;-86
2022/04/03 09:58:56;;;;;;;2.60;0.50;;;7.40;96.90;;;;;;4978811;28;20103;-86
2022/04/03 10:01:38;;;;;;;3.15;0.93;;;7.70;96.20;;;;;;4971546;28;20025;-86
2022/04/03 10:04:14;;;;;;;3.10;0.57;;;7.70;95.00;;;;;;4982051;28;20027;-86
2022/04/03 10:06:41;;;;;;;2.00;0.40;;;7.80;95.00;;;;;;4977456;28;20106;-86
2022/04/03 10:09:11;;;;;;;1.27;0.50;;;7.90;95.00;;;;;;4977102;28;20026;-86
2022/04/03 10:11:37;;;;;;;4.68;0.50;;;8.00;94.50;;;;;;4976095;28;20474;-86
2022/04/03 10:14:03;;;;;;;1.35;0.50;;;8.00;94.10;;;;;;4978792;28;20026;-86
2022/04/03 10:16:29;;;;;;;1.92;0.57;;;8.00;93.70;;;;;;4979537;28;20041;-87
2022/04/03 10:18:54;;;;;;;3.30;0.50;;;8.10;93.90;;;;;;4978004;28;20023;-87
2022/04/03 10:21:41;;;;;;;2.13;0.40;;;8.10;93.10;;;;;;4973628;28;20026;-86
2022/04/03 10:24:13;;;;;;;0.98;0.30;;;8.10;91.70;;;;;;4968206;28;20042;-87
2022/04/03 10:26:40;;;;;;;2.53;0.30;;;7.80;91.90;;;;;;4979555;28;20038;-87
2022/04/03 10:29:09;;;;;;;2.92;0.35;;;7.60;92.00;;;;;;4976480;28;20389;-86
2022/04/03 10:31:39;;;;;;;1.35;0.30;;;7.50;92.20;;;;;;4979110;28;20032;-87
2022/04/03 10:34:05;;;;;;;3.10;0.47;;;7.50;92.00;;;;;;4987748;28;20019;-87
2022/04/03 10:36:32;;;;;;;0.88;0.30;;;7.40;91.70;;;;;;4991514;28;20058;-87
2022/04/03 10:39:06;;;;;;;0.88;0.30;;;7.30;91.80;;;;;;4979281;28;20026;-87
2022/04/03 10:41:36;;;;;;;0.73;0.20;;;7.40;92.00;;;;;;4977511;28;20545;-86
2022/04/03 10:44:19;;;;;;;2.35;0.30;;;7.40;91.80;;;;;;4976661;28;20390;-87
2022/04/03 10:47:06;;;;;;;1.90;0.30;;;7.50;91.70;;;;;;4993253;28;20044;-87
2022/04/03 10:49:41;;;;;;;1.15;0.22;;;7.50;91.40;;;;;;4962757;28;20050;-87
2022/04/03 10:52:10;;;;;;;0.95;0.20;;;7.40;90.90;;;;;;4977699;28;20037;-88
2022/04/03 10:54:49;;;;;;;3.25;0.35;;;7.30;90.60;;;;;;4980302;28;20050;-87
2022/04/03 10:57:34;;;;;;;3.08;0.30;;;7.20;90.70;;;;;;4978478;28;20060;-88
2022/04/03 11:00:26;;;;;;;1.45;0.30;;;7.10;90.70;;;;;;4970034;28;20022;-87
2022/04/03 11:02:59;;;;;;;3.72;0.22;;;7.00;90.70;;;;;;4950929;28;20041;-85
2022/04/03 11:05:27;;;;;;;1.10;0.25;;;7.00;90.70;;;;;;4972800;28;20034;-86
2022/04/03 11:08:14;;;;;;;2.92;0.50;;;7.00;90.70;;;;;;4977018;28;20119;-87
2022/04/03 11:10:58;;;;;;;1.95;0.30;;;7.00;90.80;;;;;;4979936;28;20034;-87
2022/04/03 11:13:30;;;;;;;0.73;0.28;;;7.10;90.60;;;;;;4964961;28;20402;-87
2022/04/03 11:16:15;;;;;;;1.85;0.65;;;7.30;90.90;;;;;;4966929;28;20022;-87
2022/04/03 11:18:49;;;;;;;3.67;0.40;;;7.80;91.20;;;;;;4971565;28;20045;-87
2022/04/03 11:21:26;;;;;;;2.53;0.50;;;8.20;90.50;;;;;;4998023;28;20414;-88
2022/04/03 11:24:02;;;;;;;1.30;0.30;;;8.50;90.30;;;;;;4978546;28;20026;-87
2022/04/03 11:26:29;;;;;;;0.55;0.20;;;8.60;89.00;;;;;;4966289;28;20585;-87
2022/04/03 11:28:55;;;;;;;2.35;0.40;;;8.60;87.60;;;;;;4977756;28;20028;-88
2022/04/03 11:31:20;;;;;;;2.10;0.30;;;8.60;86.70;;;;;;4983590;28;20050;-88
2022/04/03 11:33:47;;;;;;;4.35;0.40;;;8.50;87.30;;;;;;4979759;28;20022;-88
2022/04/03 11:36:17;;;;;;;2.53;0.35;;;8.40;90.60;;;;;;4986747;28;20064;-87
2022/04/03 11:38:48;;;;;;;4.57;0.68;;;8.10;91.10;;;;;;4983691;28;20463;-88
2022/04/03 11:41:29;;;;;;;2.50;0.40;;;7.90;91.70;;;;;;4984580;28;20025;-88
2022/04/03 11:44:09;;;;;;;1.83;0.52;;;7.80;92.50;;;;;;4974161;28;20035;-87
2022/04/03 11:46:46;;;;;;;6.25;0.40;;;7.80;92.80;;;;;;4982152;28;20140;-88
2022/04/03 11:49:14;;;;;;;5.22;0.43;;;7.90;92.90;;;;;;4979228;28;20069;-88
2022/04/03 11:51:40;;;;;;;1.83;0.60;;;7.90;92.70;;;;;;4983933;28;20383;-86
2022/04/03 11:54:06;;;;;;;2.50;0.43;;;7.90;92.50;;;;;;4980027;28;20027;-86
2022/04/03 11:56:35;;;;;;;3.88;0.50;;;7.90;92.30;;;;;;4981144;28;20118;-86
2022/04/03 11:59:01;;;;;;;3.53;0.35;;;7.80;92.10;;;;;;4978371;28;20110;-87
2022/04/03 12:01:34;;;;;;;2.45;0.40;;;7.80;91.80;;;;;;4973563;28;20031;-87
2022/04/03 12:04:00;;;;;;;1.30;0.40;;;7.80;92.40;;;;;;4979971;28;20090;-87
2022/04/03 12:06:26;;;;;;;2.20;0.43;;;7.80;91.70;;;;;;4984421;28;20066;-87
2022/04/03 12:08:52;;;;;;;3.28;0.40;;;7.80;91.60;;;;;;4976830;28;20122;-87
2022/04/03 12:11:29;;;;;;;1.58;0.30;;;7.90;92.00;;;;;;4983317;28;20078;-87
2022/04/03 12:14:02;;;;;;;1.70;0.35;;;8.10;92.20;;;;;;4976027;28;20426;-87
2022/04/03 12:16:30;;;;;;;2.25;0.32;;;8.20;91.30;;;;;;4981278;28;20387;-87
2022/04/03 12:19:04;;;;;;;2.20;0.30;;;8.20;90.90;;;;;;4976737;28;20019;-87
2022/04/03 12:21:46;;;;;;;1.02;0.28;;;8.30;90.70;;;;;;4972632;28;20019;-87
2022/04/03 12:24:15;;;;;;;1.80;0.28;;;8.50;90.40;;;;;;4974555;28;20118;-87
2022/04/03 12:26:50;;;;;;;1.27;0.20;;;8.60;90.00;;;;;;4976572;28;20035;-87
2022/04/03 12:29:18;;;;;;;2.10;0.20;;;8.70;88.40;;;;;;4982172;28;20055;-87
2022/04/03 12:31:55;;;;;;;1.85;0.30;;;8.80;88.20;;;;;;4979345;28;20054;-87
2022/04/03 12:34:21;;;;;;;1.02;0.22;;;9.00;89.30;;;;;;4981900;28;20390;-87
2022/04/03 12:36:49;;;;;;;0.55;0.20;;;9.30;88.80;;;;;;4976914;28;20023;-87
2022/04/03 12:39:38;;;;;;;1.70;0.30;;;9.50;87.70;;;;;;4974782;28;20130;-87
2022/04/03 12:42:23;;;;;;;2.03;0.30;;;9.50;86.20;;;;;;4972015;28;20027;-87
2022/04/03 12:44:59;;;;;;;2.90;0.20;;;9.50;84.80;;;;;;4971294;28;20030;-87
2022/04/03 12:47:32;;;;;;;6.53;0.30;;;9.30;84.50;;;;;;4970652;28;20495;-87
2022/04/03 12:50:26;;;;;;;1.98;0.30;;;9.20;85.30;;;;;;4966840;28;20058;-87
2022/04/03 12:52:57;;;;;;;1.13;0.30;;;9.20;85.30;;;;;;4986866;28;20031;-88
2022/04/03 12:55:29;;;;;;;0.68;0.30;;;9.00;85.50;;;;;;4973485;28;20027;-88